Time;durP1;ratioP1;P1;durP2;ratioP2;P2;SDS_P1;SDS_P2;PMS_P1;PMS_P2;Temp;Humidity;BMP_temperature;BMP_pressure;BME280_temperature;BME280_humidity;BME280_pressure;Samples;Min_cycle;Max_cycle;Signal;HPM_P1;HPM_P2
2024/02/07 00:01:26;;;;;;;;;;;;;;;2.08;100.00;99076.59;109172;1253;66888;-62
2024/02/07 00:03:54;;;;;;;;;;;;;;;2.09;100.00;99071.86;109225;1253;71589;-61
2024/02/07 00:06:21;;;;;;;;;;;;;;;2.07;100.00;99061.40;109224;1253;59026;-62
2024/02/07 00:08:49;;;;;;;;;;;;;;;2.07;100.00;99060.08;109200;1253;60320;-62
2024/02/07 00:11:17;;;;;;;;;;;;;;;2.05;100.00;99062.02;109223;1252;73905;-62
2024/02/07 00:13:44;;;;;;;;;;;;;;;2.07;100.00;99066.69;109219;1253;65633;-63
2024/02/07 00:16:12;;;;;;;;;;;;;;;2.06;100.00;99071.94;109216;1253;72365;-62
2024/02/07 00:18:40;;;;;;;;;;;;;;;2.06;100.00;99071.10;109189;1253;59340;-65
2024/02/07 00:21:08;;;;;;;;;;;;;;;2.05;100.00;99064.00;109221;1254;58960;-63
2024/02/07 00:23:35;;;;;;;;;;;;;;;2.06;100.00;99071.77;109230;1253;73237;-62
2024/02/07 00:26:03;;;;;;;;;;;;;;;2.07;100.00;99074.08;109241;1253;65811;-62
2024/02/07 00:28:30;;;;;;;;;;;;;;;2.09;100.00;99073.77;109220;1253;71459;-62
2024/02/07 00:30:58;;;;;;;;;;;;;;;2.10;100.00;99064.71;109183;1253;59437;-63
2024/02/07 00:33:25;;;;;;;;;;;;;;;2.14;100.00;99058.98;109210;1253;59064;-62
2024/02/07 00:35:53;;;;;;;;;;;;;;;2.17;100.00;99056.60;109201;1253;74864;-62
2024/02/07 00:38:21;;;;;;;;;;;;;;;2.18;100.00;99055.50;109241;1253;65654;-62
2024/02/07 00:40:49;;;;;;;;;;;;;;;2.20;100.00;99059.42;109210;1253;71250;-65
2024/02/07 00:43:17;;;;;;;;;;;;;;;2.20;100.00;99059.42;109155;1255;61854;-62
2024/02/07 00:45:45;;;;;;;;;;;;;;;2.22;100.00;99044.84;109284;1253;59415;-62
2024/02/07 00:48:12;;;;;;;;;;;;;;;2.22;100.00;99038.98;109259;1253;74742;-62
2024/02/07 00:50:40;;;;;;;;;;;;;;;2.18;100.00;99035.39;109193;1253;66919;-65
2024/02/07 00:53:08;;;;;;;;;;;;;;;2.17;100.00;99035.67;109188;1254;71667;-63
2024/02/07 00:55:35;;;;;;;;;;;;;;;2.17;100.00;99037.54;109341;1253;61029;-61
2024/02/07 00:58:03;;;;;;;;;;;;;;;2.17;100.00;99034.65;109225;1253;59847;-62
2024/02/07 01:00:30;;;;;;;;;;;;;;;2.17;100.00;99027.61;109284;1252;74736;-62
2024/02/07 01:02:58;;;;;;;;;;;;;;;2.18;100.00;99019.64;109207;1253;66343;-62
2024/02/07 01:05:26;;;;;;;;;;;;;;;2.20;100.00;99014.98;109239;1253;72729;-62
2024/02/07 01:07:53;;;;;;;;;;;;;;;2.20;100.00;99015.89;109237;1256;59620;-62
2024/02/07 01:10:21;;;;;;;;;;;;;;;2.19;100.00;99013.21;109229;1253;59880;-62
2024/02/07 01:12:48;;;;;;;;;;;;;;;2.18;100.00;99009.39;109196;1253;74734;-66
2024/02/07 01:15:17;;;;;;;;;;;;;;;2.18;100.00;99009.00;109173;1253;68144;-63
2024/02/07 01:17:44;;;;;;;;;;;;;;;2.19;100.00;99007.71;109141;1253;71380;-63
2024/02/07 01:20:12;;;;;;;;;;;;;;;2.20;100.00;99004.05;109221;1253;59209;-61
2024/02/07 01:22:40;;;;;;;;;;;;;;;2.19;100.00;98996.52;109194;1253;58925;-61
2024/02/07 01:25:08;;;;;;;;;;;;;;;2.18;100.00;98995.60;109212;1253;73589;-61
2024/02/07 01:27:36;;;;;;;;;;;;;;;2.17;100.00;98988.25;109214;1253;64548;-61
2024/02/07 01:30:04;;;;;;;;;;;;;;;2.17;100.00;98991.02;109242;1253;72723;-61
2024/02/07 01:32:32;;;;;;;;;;;;;;;2.17;100.00;98987.90;109233;1253;59004;-61
2024/02/07 01:34:59;;;;;;;;;;;;;;;2.17;100.00;98985.00;109251;1254;59913;-61
2024/02/07 01:37:27;;;;;;;;;;;;;;;2.15;100.00;98978.14;109182;1253;73429;-63
2024/02/07 01:39:54;;;;;;;;;;;;;;;2.17;100.00;98977.14;109204;1253;66941;-61
2024/02/07 01:42:24;;;;;;;;;;;;;;;2.17;100.00;98975.91;109233;1253;72705;-61
2024/02/07 01:45:02;;;;;;;;;;;;;;;2.17;100.00;98973.34;109198;1253;59233;-61
2024/02/07 01:47:30;;;;;;;;;;;;;;;2.19;100.00;98971.44;109169;1253;59462;-61
2024/02/07 01:49:57;;;;;;;;;;;;;;;2.19;100.00;98965.75;109222;1253;73431;-61
2024/02/07 01:52:25;;;;;;;;;;;;;;;2.20;100.00;98964.27;109215;1253;66946;-61
2024/02/07 01:54:55;;;;;;;;;;;;;;;2.21;100.00;98968.65;109235;1253;71400;-61
2024/02/07 01:57:23;;;;;;;;;;;;;;;2.21;100.00;98964.05;109195;1253;59004;-61
2024/02/07 01:59:50;;;;;;;;;;;;;;;2.20;100.00;98959.30;109232;1253;59918;-61
2024/02/07 02:02:18;;;;;;;;;;;;;;;2.17;100.00;98959.27;109256;1253;74757;-61
2024/02/07 02:04:46;;;;;;;;;;;;;;;2.14;100.00;98957.88;109275;1253;67046;-62
2024/02/07 02:07:14;;;;;;;;;;;;;;;2.12;100.00;98959.75;109145;1253;72457;-64
2024/02/07 02:09:41;;;;;;;;;;;;;;;2.12;100.00;98957.23;109200;1253;59883;-61
2024/02/07 02:12:09;;;;;;;;;;;;;;;2.13;100.00;98962.77;109276;1253;59793;-61
2024/02/07 02:14:36;;;;;;;;;;;;;;;2.14;100.00;98962.67;109248;1253;74699;-61
2024/02/07 02:17:04;;;;;;;;;;;;;;;2.17;100.00;98962.48;109257;1253;67538;-62
2024/02/07 02:19:31;;;;;;;;;;;;;;;2.21;100.00;98962.63;109166;1253;71666;-62
2024/02/07 02:21:59;;;;;;;;;;;;;;;2.24;100.00;98968.55;109243;1253;60841;-61
2024/02/07 02:24:45;;;;;;;;;;;;;;;2.25;100.00;98964.08;109236;1254;59826;-62
2024/02/07 02:27:15;;;;;;;;;;;;;;;2.27;100.00;98968.86;109202;1253;74702;-62
2024/02/07 02:29:53;;;;;;;;;;;;;;;2.28;100.00;98966.17;109231;1253;65695;-62
2024/02/07 02:32:21;;;;;;;;;;;;;;;2.31;100.00;98965.90;109174;1253;72714;-62
2024/02/07 02:34:49;;;;;;;;;;;;;;;2.32;100.00;98965.81;109111;1255;59678;-63
2024/02/07 02:37:18;;;;;;;;;;;;;;;2.34;100.00;98963.17;109236;1254;59096;-61
2024/02/07 02:39:45;;;;;;;;;;;;;;;2.38;100.00;98965.51;109095;1255;73415;-61
2024/02/07 02:42:13;;;;;;;;;;;;;;;2.39;100.00;98964.71;109200;1253;65695;-62
2024/02/07 02:44:40;;;;;;;;;;;;;;;2.37;100.00;98956.80;109286;1253;71969;-61
2024/02/07 02:47:08;;;;;;;;;;;;;;;2.37;100.00;98947.20;109108;1257;58925;-62
2024/02/07 02:49:36;;;;;;;;;;;;;;;2.38;100.00;98945.23;109190;1254;59192;-62
2024/02/07 02:52:03;;;;;;;;;;;;;;;2.41;100.00;98942.52;109198;1257;73808;-62
2024/02/07 02:54:34;;;;;;;;;;;;;;;2.42;100.00;98941.41;109312;1253;67335;-63
2024/02/07 02:57:02;;;;;;;;;;;;;;;2.43;100.00;98931.80;109141;1258;72757;-65
2024/02/07 02:59:32;;;;;;;;;;;;;;;2.43;100.00;98932.47;109147;1254;58990;-62
2024/02/07 03:02:08;;;;;;;;;;;;;;;2.42;100.00;98927.79;109311;1254;59898;-62
2024/02/07 03:04:41;;;;;;;;;;;;;;;2.42;100.00;98933.17;109205;1253;73536;-62
2024/02/07 03:09:56;;;;;;;;;;;;;;;2.45;100.00;98928.50;109153;1256;71783;-62
2024/02/07 03:12:25;;;;;;;;;;;;;;;2.46;100.00;98931.70;109132;1256;58963;-62
2024/02/07 03:14:52;;;;;;;;;;;;;;;2.43;100.00;98927.91;109145;1254;59842;-62
2024/02/07 03:17:20;;;;;;;;;;;;;;;2.38;100.00;98928.14;109167;1259;74765;-62
2024/02/07 03:19:47;;;;;;;;;;;;;;;2.30;100.00;98924.64;109181;1254;65736;-62
2024/02/07 03:22:14;;;;;;;;;;;;;;;2.27;100.00;98918.86;109192;1253;74853;-61
2024/02/07 03:24:42;;;;;;;;;;;;;;;2.24;100.00;98909.73;109181;1253;59179;-62
2024/02/07 03:27:11;;;;;;;;;;;;;;;2.25;100.00;98908.73;109237;1253;59905;-61
2024/02/07 03:29:38;;;;;;;;;;;;;;;2.27;100.00;98909.40;109266;1254;74918;-61
2024/02/07 03:32:06;;;;;;;;;;;;;;;2.30;100.00;98901.30;109475;1253;65089;-61
2024/02/07 03:34:33;;;;;;;;;;;;;;;2.33;100.00;98901.88;109168;1254;72758;-61
2024/02/07 03:37:01;;;;;;;;;;;;;;;2.37;100.00;98904.77;109212;1254;60159;-61
2024/02/07 03:39:28;;;;;;;;;;;;;;;2.40;100.00;98898.95;109276;1253;59350;-61
2024/02/07 03:41:56;;;;;;;;;;;;;;;2.42;100.00;98894.86;109254;1254;74761;-61
2024/02/07 03:44:23;;;;;;;;;;;;;;;2.45;100.00;98892.41;109199;1254;65623;-62
2024/02/07 03:46:51;;;;;;;;;;;;;;;2.47;100.00;98894.02;109281;1254;72380;-61
2024/02/07 03:49:20;;;;;;;;;;;;;;;2.50;100.00;98888.09;109214;1254;59496;-62
2024/02/07 03:51:48;;;;;;;;;;;;;;;2.50;100.00;98882.05;109264;1253;60011;-62
2024/02/07 03:54:15;;;;;;;;;;;;;;;2.50;100.00;98882.90;109189;1253;74764;-64
2024/02/07 03:56:43;;;;;;;;;;;;;;;2.51;100.00;98889.31;109267;1253;68092;-61
2024/02/07 03:59:11;;;;;;;;;;;;;;;2.51;100.00;98890.26;109234;1252;71371;-60
2024/02/07 04:01:39;;;;;;;;;;;;;;;2.49;100.00;98892.27;109218;1254;59885;-60
2024/02/07 04:04:08;;;;;;;;;;;;;;;2.50;100.00;98895.65;109185;1253;58953;-64
2024/02/07 04:06:37;;;;;;;;;;;;;;;2.47;100.00;98890.64;109194;1259;73486;-61
2024/02/07 04:09:05;;;;;;;;;;;;;;;2.45;100.00;98884.45;109204;1253;66327;-61
2024/02/07 05:17:21;;;;;;;;;;;;;;;2.79;100.00;98846.48;109257;1253;66527;-67
2024/02/07 05:19:49;;;;;;;;;;;;;;;2.86;100.00;98848.54;109253;1253;72712;-62
2024/02/07 05:22:16;;;;;;;;;;;;;;;2.91;100.00;98846.42;109251;1254;60099;-63
2024/02/07 05:24:45;;;;;;;;;;;;;;;2.98;100.00;98841.38;109244;1253;59306;-64
2024/02/07 05:27:13;;;;;;;;;;;;;;;3.05;100.00;98840.36;109238;1254;74754;-68
2024/02/07 05:29:41;;;;;;;;;;;;;;;3.12;100.00;98845.16;109259;1252;66928;-64
2024/02/07 05:32:08;;;;;;;;;;;;;;;3.18;100.00;98840.16;109230;1252;70786;-66
2024/02/07 05:34:36;;;;;;;;;;;;;;;3.24;100.00;98838.61;109247;1255;60912;-65
2024/02/07 05:37:04;;;;;;;;;;;;;;;3.30;100.00;98839.31;109253;1253;59348;-65
2024/02/07 05:39:33;;;;;;;;;;;;;;;3.34;100.00;98837.84;109202;1253;74697;-66
2024/02/07 05:42:01;;;;;;;;;;;;;;;3.39;100.00;98834.02;109282;1254;66891;-65
2024/02/07 05:44:28;;;;;;;;;;;;;;;3.44;100.00;98834.33;109265;1254;72759;-65
2024/02/07 05:46:56;;;;;;;;;;;;;;;3.50;100.00;98831.48;109227;1254;60938;-65
2024/02/07 05:49:24;;;;;;;;;;;;;;;3.55;100.00;98830.13;109213;1254;59043;-66
2024/02/07 05:51:57;;;;;;;;;;;;;;;3.60;100.00;98831.32;109302;1254;73872;-65
2024/02/07 05:54:29;;;;;;;;;;;;;;;3.65;100.00;98831.11;109301;1254;67446;-65
2024/02/07 05:56:56;;;;;;;;;;;;;;;3.72;100.00;98830.11;109249;1253;72742;-64
2024/02/07 05:59:24;;;;;;;;;;;;;;;3.78;100.00;98833.13;109186;1253;59580;-67
2024/02/07 06:01:51;;;;;;;;;;;;;;;3.81;100.00;98834.30;109261;1253;59887;-66
2024/02/07 06:04:19;;;;;;;;;;;;;;;3.84;100.00;98832.86;109311;1253;74710;-66
2024/02/07 06:06:49;;;;;;;;;;;;;;;3.87;100.00;98834.77;109304;1252;67014;-66
2024/02/07 06:09:17;;;;;;;;;;;;;;;3.90;100.00;98836.67;109313;1253;72838;-66
2024/02/07 06:11:44;;;;;;;;;;;;;;;3.94;100.00;98836.45;109253;1252;59624;-66
2024/02/07 06:14:14;;;;;;;;;;;;;;;3.96;100.00;98837.59;109273;1252;58996;-66
2024/02/07 06:16:41;;;;;;;;;;;;;;;3.97;100.00;98836.34;109337;1253;74735;-66
2024/02/07 06:19:12;;;;;;;;;;;;;;;4.00;100.00;98834.00;109323;1253;66924;-66
2024/02/07 06:21:40;;;;;;;;;;;;;;;4.04;100.00;98837.99;109270;1254;72717;-65
2024/02/07 06:24:07;;;;;;;;;;;;;;;4.08;100.00;98840.14;109297;1253;60783;-65
2024/02/07 06:26:35;;;;;;;;;;;;;;;4.11;100.00;98840.48;109293;1252;59038;-65
2024/02/07 06:29:02;;;;;;;;;;;;;;;4.16;100.00;98843.55;109317;1252;74869;-65
2024/02/07 06:31:30;;;;;;;;;;;;;;;4.20;100.00;98842.04;109294;1254;67113;-67
2024/02/07 06:33:57;;;;;;;;;;;;;;;4.25;100.00;98839.08;109290;1253;72993;-65
2024/02/07 06:36:25;;;;;;;;;;;;;;;4.31;100.00;98843.56;109282;1254;60192;-64
2024/02/07 06:38:52;;;;;;;;;;;;;;;4.35;100.00;98843.71;109314;1252;60014;-65
2024/02/07 06:41:20;;;;;;;;;;;;;;;4.37;100.00;98839.53;109290;1254;74759;-65
2024/02/07 06:43:47;;;;;;;;;;;;;;;4.42;100.00;98842.20;109262;1253;68962;-65
2024/02/07 06:46:15;;;;;;;;;;;;;;;4.46;100.00;98842.08;109299;1253;72743;-65
2024/02/07 06:48:42;;;;;;;;;;;;;;;4.49;100.00;98844.57;109294;1253;59198;-65
2024/02/07 06:51:10;;;;;;;;;;;;;;;4.51;100.00;98839.48;109292;1253;59902;-65
2024/02/07 06:53:37;;;;;;;;;;;;;;;4.53;100.00;98837.80;109283;1253;74706;-65
2024/02/07 06:56:05;;;;;;;;;;;;;;;4.58;100.00;98837.60;109323;1253;65651;-66
2024/02/07 06:58:33;;;;;;;;;;;;;;;4.61;100.00;98830.13;109323;1253;72905;-65
2024/02/07 07:01:00;;;;;;;;;;;;;;;4.64;100.00;98829.52;109298;1252;58944;-65
2024/02/07 07:03:29;;;;;;;;;;;;;;;4.65;100.00;98828.86;109275;1254;58955;-65
2024/02/07 07:05:57;;;;;;;;;;;;;;;4.67;100.00;98824.76;109259;1252;74749;-65
2024/02/07 07:08:25;;;;;;;;;;;;;;;4.72;100.00;98824.69;109364;1253;69697;-66
2024/02/07 07:10:53;;;;;;;;;;;;;;;4.75;100.00;98822.84;109301;1253;73600;-66
2024/02/07 07:13:20;;;;;;;;;;;;;;;4.80;100.00;98829.13;109293;1252;60971;-66
2024/02/07 07:15:48;;;;;;;;;;;;;;;4.84;100.00;98831.16;109256;1252;61040;-67
2024/02/07 07:18:15;;;;;;;;;;;;;;;4.89;100.00;98823.12;109300;1252;76732;-66
2024/02/07 07:20:43;;;;;;;;;;;;;;;4.93;100.00;98819.77;109308;1252;66832;-66
2024/02/07 07:23:11;;;;;;;;;;;;;;;4.95;100.00;98823.80;109299;1253;74695;-66
2024/02/07 07:25:43;;;;;;;;;;;;;;;4.99;100.00;98817.79;109270;1253;62544;-66
2024/02/07 07:28:11;;;;;;;;;;;;;;;5.03;100.00;98813.35;109327;1253;60573;-65
2024/02/07 07:30:39;;;;;;;;;;;;;;;5.09;100.00;98807.29;109318;1252;76764;-65
2024/02/07 07:33:07;;;;;;;;;;;;;;;5.13;100.00;98810.46;109342;1251;68072;-66
2024/02/07 07:35:34;;;;;;;;;;;;;;;5.16;100.00;98806.55;109443;1251;75116;-65
2024/02/07 07:38:04;;;;;;;;;;;;;;;5.15;100.00;98803.23;109436;1253;64480;-66
2024/02/07 07:40:32;;;;;;;;;;;;;;;5.10;100.00;98796.80;109487;1253;60851;-66
2024/02/07 07:43:00;;;;;;;;;;;;;;;5.06;100.00;98795.65;109467;1253;75745;-65
2024/02/07 07:45:27;;;;;;;;;;;;;;;5.03;100.00;98791.17;109442;1251;68798;-65
2024/02/07 07:47:55;;;;;;;;;;;;;;;5.01;100.00;98793.18;109396;1253;74702;-66
2024/02/07 07:50:23;;;;;;;;;;;;;;;5.02;100.00;98781.10;109327;1253;61742;-65
2024/02/07 07:52:51;;;;;;;;;;;;;;;5.04;100.00;98776.08;109495;1254;62994;-65
2024/02/07 07:55:19;;;;;;;;;;;;;;;5.05;100.00;98779.91;109417;1252;76852;-65
2024/02/07 07:57:47;;;;;;;;;;;;;;;5.03;100.00;98781.83;109461;1253;69082;-65
2024/02/07 08:00:15;;;;;;;;;;;;;;;5.04;100.00;98788.77;109362;1253;75447;-65
2024/02/07 08:02:42;;;;;;;;;;;;;;;5.06;100.00;98789.37;109411;1253;63507;-65
2024/02/07 08:05:10;;;;;;;;;;;;;;;5.06;100.00;98782.25;109318;1253;60859;-66
2024/02/07 08:07:38;;;;;;;;;;;;;;;5.01;100.00;98776.89;109423;1253;76953;-65
2024/02/07 08:10:06;;;;;;;;;;;;;;;4.99;100.00;98771.37;109363;1253;68879;-66
2024/02/07 08:12:33;;;;;;;;;;;;;;;4.95;100.00;98773.20;109391;1252;72406;-64
2024/02/07 08:15:04;;;;;;;;;;;;;;;4.92;100.00;98770.86;109423;1252;64122;-65
2024/02/07 08:17:31;;;;;;;;;;;;;;;4.88;100.00;98773.01;109452;1253;61942;-65
2024/02/07 08:19:59;;;;;;;;;;;;;;;4.87;100.00;98773.27;109315;1253;75409;-66
2024/02/07 08:22:27;;;;;;;;;;;;;;;4.90;100.00;98769.11;109394;1253;70205;-65
2024/02/07 08:24:54;;;;;;;;;;;;;;;4.95;100.00;98754.77;109380;1253;74808;-65
2024/02/07 08:27:22;;;;;;;;;;;;;;;5.03;100.00;98750.00;109397;1253;64294;-63
2024/02/07 08:29:49;;;;;;;;;;;;;;;5.08;100.00;98747.03;109423;1253;61863;-65
2024/02/07 08:32:17;;;;;;;;;;;;;;;5.14;100.00;98740.81;109325;1252;73964;-65
2024/02/07 08:34:44;;;;;;;;;;;;;;;5.23;100.00;98741.12;109327;1253;67086;-64
2024/02/07 08:37:12;;;;;;;;;;;;;;;5.30;100.00;98747.27;109328;1252;72734;-65
2024/02/07 08:39:40;;;;;;;;;;;;;;;5.38;100.00;98754.02;109287;1252;63822;-64
2024/02/07 08:42:07;;;;;;;;;;;;;;;5.45;100.00;98754.91;109285;1253;61903;-64
2024/02/07 08:44:35;;;;;;;;;;;;;;;5.52;100.00;98757.12;109293;1253;75781;-63
2024/02/07 08:47:03;;;;;;;;;;;;;;;5.61;100.00;98750.38;109318;1253;69041;-63
2024/02/07 08:49:30;;;;;;;;;;;;;;;5.71;100.00;98749.38;109292;1252;74787;-63
2024/02/07 08:51:58;;;;;;;;;;;;;;;5.78;100.00;98744.98;109330;1253;62664;-63
2024/02/07 08:54:26;;;;;;;;;;;;;;;5.84;100.00;98743.45;109262;1252;61915;-64
2024/02/07 08:56:53;;;;;;;;;;;;;;;5.88;100.00;98742.36;109318;1253;75105;-63
2024/02/07 08:59:21;;;;;;;;;;;;;;;5.91;100.00;98733.59;109341;1253;69308;-63
2024/02/07 09:01:48;;;;;;;;;;;;;;;5.93;100.00;98727.89;109350;1252;74823;-63
2024/02/07 09:04:16;;;;;;;;;;;;;;;5.96;100.00;98727.13;109284;1253;62214;-63
2024/02/07 09:06:45;;;;;;;;;;;;;;;6.01;100.00;98725.30;109324;1253;60932;-63
2024/02/07 09:09:12;;;;;;;;;;;;;;;6.07;100.00;98714.16;109338;1252;74762;-63
2024/02/07 09:11:40;;;;;;;;;;;;;;;6.18;100.00;98708.57;109326;1252;67932;-63
2024/02/07 09:14:08;;;;;;;;;;;;;;;6.32;100.00;98702.59;109295;1253;72711;-63
2024/02/07 09:16:35;;;;;;;;;;;;;;;6.51;100.00;98698.85;109287;1252;65169;-63
2024/02/07 09:19:03;;;;;;;;;;;;;;;6.73;100.00;98691.30;109317;1252;62593;-63
2024/02/07 09:21:30;;;;;;;;;;;;;;;6.97;100.00;98695.34;109338;1252;75994;-63
2024/02/07 09:24:04;;;;;;;;;;;;;;;7.20;100.00;98686.41;109352;1252;65955;-63
2024/02/07 09:26:31;;;;;;;;;;;;;;;7.40;100.00;98682.02;109234;1253;74812;-63
2024/02/07 09:28:59;;;;;;;;;;;;;;;7.57;100.00;98685.51;109290;1254;62089;-65
2024/02/07 09:31:27;;;;;;;;;;;;;;;7.65;100.00;98689.64;109330;1252;62071;-64
2024/02/07 09:33:54;;;;;;;;;;;;;;;7.68;100.00;98691.95;109315;1252;72752;-63
2024/02/07 09:36:22;;;;;;;;;;;;;;;7.73;100.00;98689.95;109285;1253;66293;-64
2024/02/07 09:38:50;;;;;;;;;;;;;;;7.78;100.00;98676.80;109315;1252;76526;-63
2024/02/07 09:41:17;;;;;;;;;;;;;;;7.83;100.00;98675.67;109280;1253;58971;-63
2024/02/07 09:43:45;;;;;;;;;;;;;;;7.85;100.00;98672.60;109318;1252;61914;-63
2024/02/07 09:46:12;;;;;;;;;;;;;;;7.87;100.00;98671.00;109316;1252;76802;-63
2024/02/07 09:48:40;;;;;;;;;;;;;;;7.86;100.00;98667.33;109241;1253;68765;-63
2024/02/07 09:51:14;;;;;;;;;;;;;;;7.88;100.00;98656.11;109323;1252;74880;-63
2024/02/07 09:53:42;;;;;;;;;;;;;;;7.94;100.00;98649.42;109334;1252;61227;-62
2024/02/07 09:56:10;;;;;;;;;;;;;;;8.08;100.00;98645.34;109341;1252;60944;-62
2024/02/07 09:58:37;;;;;;;;;;;;;;;8.24;100.00;98643.19;109266;1252;76479;-62
2024/02/07 10:01:06;;;;;;;;;;;;;;;8.38;100.00;98639.86;109273;1253;69941;-62
2024/02/07 10:03:35;;;;;;;;;;;;;;;8.54;100.00;98631.10;109302;1253;72654;-62
2024/02/07 10:06:03;;;;;;;;;;;;;;;8.64;100.00;98632.52;109305;1254;62379;-62
2024/02/07 10:08:31;;;;;;;;;;;;;;;8.68;100.00;98626.94;109303;1255;58892;-62
2024/02/07 10:10:59;;;;;;;;;;;;;;;8.72;100.00;98628.07;109336;1252;76734;-62
2024/02/07 10:13:27;;;;;;;;;;;;;;;8.79;100.00;98621.58;109386;1252;69177;-62
2024/02/07 10:15:54;;;;;;;;;;;;;;;8.82;100.00;98615.29;109256;1252;72862;-60
2024/02/07 10:18:22;;;;;;;;;;;;;;;8.84;100.00;98617.73;109283;1253;64396;-63
2024/02/07 10:20:53;;;;;;;;;;;;;;;8.87;100.00;98618.97;109326;1252;61939;-63
2024/02/07 10:23:21;;;;;;;;;;;;;;;8.92;100.00;98608.10;109329;1252;76734;-60
2024/02/07 10:25:49;;;;;;;;;;;;;;;8.94;100.00;98612.27;109302;1250;68739;-60
2024/02/07 10:28:17;;;;;;;;;;;;;;;8.93;100.00;98608.20;109229;1258;74852;-62
2024/02/07 10:30:58;;;;;;;;;;;;;;;8.90;100.00;98605.60;109410;1251;62147;-60
2024/02/07 10:33:33;;;;;;;;;;;;;;;8.88;100.00;98607.77;109427;1251;61847;-62
2024/02/07 10:36:03;;;;;;;;;;;;;;;8.81;100.00;98598.51;109400;1251;77304;-60
2024/02/07 10:38:32;;;;;;;;;;;;;;;8.74;100.00;98592.53;109497;1250;70179;-61
2024/02/07 10:41:02;;;;;;;;;;;;;;;8.67;100.00;98591.52;109353;1251;71482;-60
2024/02/07 10:43:33;;;;;;;;;;;;;;;8.59;100.00;98591.56;109418;1252;64727;-61
2024/02/07 10:46:01;;;;;;;;;;;;;;;8.50;100.00;98589.69;109377;1251;60828;-61
2024/02/07 10:48:29;;;;;;;;;;;;;;;8.43;100.00;98585.23;109445;1251;77040;-61
2024/02/07 10:50:59;;;;;;;;;;;;;;;8.40;100.00;98581.93;109422;1250;68736;-63
2024/02/07 10:53:27;;;;;;;;;;;;;;;8.41;100.00;98576.02;109372;1251;75176;-60
2024/02/07 10:55:56;;;;;;;;;;;;;;;8.41;100.00;98575.08;109391;1251;64941;-60
2024/02/07 10:58:24;;;;;;;;;;;;;;;8.42;100.00;98569.38;109401;1251;60848;-61
2024/02/07 11:00:52;;;;;;;;;;;;;;;8.42;100.00;98565.27;109290;1251;76755;-62
2024/02/07 11:03:20;;;;;;;;;;;;;;;8.39;100.00;98559.98;109332;1250;69615;-60
2024/02/07 11:05:48;;;;;;;;;;;;;;;8.36;100.00;98556.42;109412;1251;73094;-62
2024/02/07 11:08:17;;;;;;;;;;;;;;;8.33;100.00;98554.55;109374;1250;61800;-60
2024/02/07 11:10:44;;;;;;;;;;;;;;;8.35;100.00;98556.39;109346;1251;60014;-60
2024/02/07 11:13:12;;;;;;;;;;;;;;;8.37;100.00;98556.41;109399;1251;74604;-61
2024/02/07 11:15:40;;;;;;;;;;;;;;;8.41;100.00;98554.65;109424;1251;67448;-60
2024/02/07 11:18:10;;;;;;;;;;;;;;;8.44;100.00;98560.29;109400;1252;76278;-63
2024/02/07 11:20:38;;;;;;;;;;;;;;;8.47;100.00;98560.44;109449;1251;61959;-60
2024/02/07 11:23:10;;;;;;;;;;;;;;;8.52;100.00;98552.81;109041;1251;440053;-61
2024/02/07 11:25:37;;;;;;;;;;;;;;;8.57;100.00;98553.38;109407;1251;75703;-62
2024/02/07 11:28:05;;;;;;;;;;;;;;;8.62;100.00;98544.02;109417;1250;69346;-64
2024/02/07 11:30:33;;;;;;;;;;;;;;;8.69;100.00;98538.98;109365;1250;73519;-61
2024/02/07 11:33:00;;;;;;;;;;;;;;;8.77;100.00;98534.75;109283;1251;60064;-60
2024/02/07 11:35:30;;;;;;;;;;;;;;;8.85;100.00;98534.33;109381;1251;60785;-61
2024/02/07 11:38:00;;;;;;;;;;;;;;;8.90;100.00;98529.05;109390;1250;76800;-60
2024/02/07 11:40:38;;;;;;;;;;;;;;;8.91;100.00;98524.48;109452;1250;67729;-60
2024/02/07 11:43:09;;;;;;;;;;;;;;;8.92;100.00;98519.91;109446;1251;74984;-60
2024/02/07 11:45:43;;;;;;;;;;;;;;;8.94;100.00;98521.33;109445;1250;60435;-63
2024/02/07 11:48:18;;;;;;;;;;;;;;;8.98;100.00;98511.77;109442;1251;61079;-60
2024/02/07 11:50:46;;;;;;;;;;;;;;;9.05;100.00;98509.67;109457;1250;76128;-61
2024/02/07 11:53:20;;;;;;;;;;;;;;;9.08;100.00;98512.48;109443;1250;68856;-61
2024/02/07 11:55:48;;;;;;;;;;;;;;;9.10;100.00;98515.35;109413;1251;75155;-61
2024/02/07 11:58:17;;;;;;;;;;;;;;;9.10;100.00;98513.38;109417;1253;62704;-61
2024/02/07 12:00:45;;;;;;;;;;;;;;;9.10;100.00;98514.82;109465;1251;59583;-62
2024/02/07 12:03:13;;;;;;;;;;;;;;;9.08;100.00;98514.50;109461;1250;75618;-61
2024/02/07 12:05:41;;;;;;;;;;;;;;;9.07;100.00;98512.48;109397;1251;68725;-67
2024/02/07 12:08:09;;;;;;;;;;;;;;;9.07;100.00;98517.02;109404;1250;74576;-61
2024/02/07 12:10:37;;;;;;;;;;;;;;;9.08;100.00;98511.67;109451;1251;62141;-62
2024/02/07 12:13:05;;;;;;;;;;;;;;;9.07;100.00;98506.41;109460;1250;60925;-63
2024/02/07 12:15:32;;;;;;;;;;;;;;;9.07;100.00;98506.45;109434;1251;76575;-62
2024/02/07 12:18:00;;;;;;;;;;;;;;;9.07;100.00;98502.62;109384;1251;68198;-60
2024/02/07 12:20:28;;;;;;;;;;;;;;;9.11;100.00;98505.08;109409;1251;73767;-60
2024/02/07 12:22:57;;;;;;;;;;;;;;;9.17;100.00;98508.38;109421;1251;63890;-60
2024/02/07 12:25:25;;;;;;;;;;;;;;;9.27;100.00;98508.39;109415;1252;62117;-61
2024/02/07 12:27:52;;;;;;;;;;;;;;;9.33;100.00;98513.81;109219;1252;76404;-63
2024/02/07 12:30:20;;;;;;;;;;;;;;;9.35;100.00;98513.70;109337;1253;68409;-60
2024/02/07 12:32:48;;;;;;;;;;;;;;;9.34;100.00;98504.17;109377;1253;76272;-60
2024/02/07 12:35:17;;;;;;;;;;;;;;;9.34;100.00;98498.14;109153;1250;62443;-59
2024/02/07 12:37:44;;;;;;;;;;;;;;;9.35;100.00;98496.70;109347;1253;61896;-61
2024/02/07 12:40:13;;;;;;;;;;;;;;;9.36;100.00;98490.02;109360;1254;76971;-59
2024/02/07 12:42:41;;;;;;;;;;;;;;;9.35;100.00;98488.52;109367;1250;68740;-61
2024/02/07 12:45:13;;;;;;;;;;;;;;;9.35;100.00;98489.77;109383;1253;73385;-59
2024/02/07 12:47:43;;;;;;;;;;;;;;;9.34;100.00;98485.76;109327;1252;62696;-59
2024/02/07 12:50:11;;;;;;;;;;;;;;;9.33;100.00;98490.32;109225;1252;61144;-59
2024/02/07 12:52:38;;;;;;;;;;;;;;;9.32;100.00;98482.34;109206;1252;74763;-59
2024/02/07 12:55:06;;;;;;;;;;;;;;;9.31;100.00;98479.95;109302;1253;68651;-58
2024/02/07 12:57:34;;;;;;;;;;;;;;;9.29;100.00;98482.50;109285;1252;75279;-59
2024/02/07 13:00:11;;;;;;;;;;;;;;;9.28;100.00;98484.86;109266;1253;62076;-62
2024/02/07 13:02:48;;;;;;;;;;;;;;;9.28;100.00;98486.90;109444;1252;60725;-60
2024/02/07 13:05:16;;;;;;;;;;;;;;;9.30;100.00;98483.23;109323;1253;76613;-59
2024/02/07 13:07:44;;;;;;;;;;;;;;;9.31;100.00;98483.17;109336;1252;67354;-60
2024/02/07 13:10:12;;;;;;;;;;;;;;;9.30;100.00;98480.08;109241;1252;75489;-59
2024/02/07 13:12:40;;;;;;;;;;;;;;;9.29;100.00;98478.98;109333;1252;63596;-60
2024/02/07 13:15:13;;;;;;;;;;;;;;;9.28;100.00;98478.27;109319;1252;60883;-60
2024/02/07 13:17:41;;;;;;;;;;;;;;;9.28;100.00;98472.95;109269;1252;75704;-60
2024/02/07 13:20:09;;;;;;;;;;;;;;;9.26;100.00;98468.96;109358;1252;69196;-60
2024/02/07 13:22:37;;;;;;;;;;;;;;;9.24;100.00;98467.02;109289;1252;76173;-60
2024/02/07 13:25:09;;;;;;;;;;;;;;;9.23;100.00;98464.77;109333;1253;62615;-62
2024/02/07 13:27:41;;;;;;;;;;;;;;;9.22;100.00;98460.02;109357;1251;61912;-59
2024/02/07 13:30:09;;;;;;;;;;;;;;;9.22;100.00;98460.64;109445;1251;76772;-61
2024/02/07 13:32:37;;;;;;;;;;;;;;;9.22;100.00;98460.63;109390;1253;68883;-60
2024/02/07 13:35:05;;;;;;;;;;;;;;;9.23;100.00;98457.00;109380;1251;73811;-62
2024/02/07 13:37:32;;;;;;;;;;;;;;;9.21;100.00;98451.30;109304;1252;63111;-60
2024/02/07 13:40:01;;;;;;;;;;;;;;;9.20;100.00;98449.79;109341;1252;61780;-59
2024/02/07 13:42:28;;;;;;;;;;;;;;;9.18;100.00;98446.02;109375;1252;76989;-60
2024/02/07 13:44:56;;;;;;;;;;;;;;;9.15;100.00;98445.20;109350;1251;66521;-61
2024/02/07 13:47:24;;;;;;;;;;;;;;;9.12;100.00;98446.04;109355;1251;75593;-60
2024/02/07 13:49:51;;;;;;;;;;;;;;;9.09;100.00;98441.89;109383;1251;63767;-60